Time;durP1;ratioP1;P1;durP2;ratioP2;P2;SDS_P1;SDS_P2;PMS_P1;PMS_P2;Temp;Humidity;BMP_temperature;BMP_pressure;BME280_temperature;BME280_humidity;BME280_pressure;Samples;Min_cycle;Max_cycle;Signal;HPM_P1;HPM_P2
2023/05/02 00:00:44;;;;;;;6.67;5.80;;;18.60;54.80;;;;;;4949112;28;20230;-57
2023/05/02 00:03:13;;;;;;;5.77;5.27;;;18.60;55.30;;;;;;4950464;28;20219;-55
2023/05/02 00:05:39;;;;;;;5.60;5.20;;;18.50;55.30;;;;;;4948382;28;20216;-51
2023/05/02 00:08:05;;;;;;;5.40;4.90;;;18.60;55.40;;;;;;4946777;28;20451;-55
2023/05/02 00:10:31;;;;;;;4.80;4.40;;;18.50;55.20;;;;;;4948147;28;20459;-54
2023/05/02 00:12:56;;;;;;;6.90;5.50;;;18.50;55.10;;;;;;4945382;28;20603;-58
2023/05/02 00:15:22;;;;;;;5.93;5.43;;;18.50;55.40;;;;;;4950931;28;20231;-55
2023/05/02 00:17:48;;;;;;;5.63;5.20;;;18.40;55.50;;;;;;4952761;29;20184;-54
2023/05/02 00:20:13;;;;;;;5.63;5.13;;;18.40;54.90;;;;;;4946156;28;20211;-55
2023/05/02 00:22:39;;;;;;;6.47;5.50;;;18.40;55.10;;;;;;4949091;28;20203;-56
2023/05/02 00:25:05;;;;;;;6.07;5.47;;;18.40;55.00;;;;;;4940715;28;20206;-55
2023/05/02 00:27:32;;;;;;;5.93;5.43;;;18.40;54.40;;;;;;4946229;28;20247;-53
2023/05/02 00:29:59;;;;;;;5.80;5.30;;;18.40;54.30;;;;;;4942668;28;20447;-55
2023/05/02 00:32:24;;;;;;;6.00;5.50;;;18.30;54.40;;;;;;4947069;28;20932;-56
2023/05/02 00:34:50;;;;;;;5.77;5.33;;;18.20;54.30;;;;;;4946232;28;20452;-53
2023/05/02 00:37:15;;;;;;;5.83;5.33;;;18.10;54.40;;;;;;4950640;28;20200;-54
2023/05/02 00:39:41;;;;;;;5.13;4.73;;;18.10;55.20;;;;;;4946855;28;20199;-55
2023/05/02 00:42:06;;;;;;;5.30;4.90;;;18.00;55.60;;;;;;4948440;28;20259;-55
2023/05/02 00:44:32;;;;;;;6.00;5.50;;;18.00;55.50;;;;;;4944832;28;20196;-55
2023/05/02 00:47:00;;;;;;;4.87;4.47;;;18.00;55.30;;;;;;4949629;28;20196;-55
2023/05/02 00:49:26;;;;;;;6.67;5.20;;;18.00;55.30;;;;;;4944574;28;20203;-53
2023/05/02 00:51:53;;;;;;;5.60;5.10;;;18.00;55.10;;;;;;4950231;28;20459;-54
2023/05/02 00:54:18;;;;;;;5.47;4.97;;;18.10;55.30;;;;;;4943211;28;20203;-53
2023/05/02 00:56:45;;;;;;;5.60;5.10;;;18.10;55.00;;;;;;4944763;29;20975;-55
2023/05/02 00:59:11;;;;;;;5.13;4.73;;;18.10;54.80;;;;;;4941599;29;20192;-55
2023/05/02 01:01:55;;;;;;;5.93;5.43;;;18.00;54.50;;;;;;4943966;28;20470;-54
2023/05/02 01:04:44;;;;;;;5.40;5.00;;;18.10;54.50;;;;;;4944343;28;20951;-54
2023/05/02 01:07:37;;;;;;;5.27;4.80;;;18.00;54.10;;;;;;4950710;28;20538;-55
2023/05/02 01:10:29;;;;;;;5.67;5.00;;;18.00;54.50;;;;;;4945760;28;20451;-55
2023/05/02 01:13:04;;;;;;;7.40;5.10;;;17.90;54.40;;;;;;4946465;28;20954;-55
2023/05/02 01:15:32;;;;;;;5.60;5.13;;;17.90;54.30;;;;;;4943501;28;21275;-56
2023/05/02 01:18:00;;;;;;;5.37;4.87;;;17.90;54.50;;;;;;4948845;29;20466;-55
2023/05/02 01:20:30;;;;;;;5.50;5.07;;;17.80;54.40;;;;;;4944599;28;20451;-55
2023/05/02 01:23:03;;;;;;;5.17;4.70;;;17.90;54.70;;;;;;4942456;28;20451;-55
2023/05/02 01:25:39;;;;;;;4.90;4.50;;;17.90;54.70;;;;;;4946083;28;20455;-52
2023/05/02 01:28:24;;;;;;;5.70;4.43;;;17.90;54.90;;;;;;4946042;28;20443;-57
2023/05/02 01:30:53;;;;;;;5.23;4.73;;;17.90;54.90;;;;;;4944042;28;20454;-55
2023/05/02 01:33:21;;;;;;;4.90;4.50;;;17.90;54.80;;;;;;4937629;28;20538;-53
2023/05/02 01:35:50;;;;;;;4.47;4.07;;;17.80;54.70;;;;;;4941533;28;20491;-55
2023/05/02 01:38:18;;;;;;;5.00;4.60;;;17.80;54.60;;;;;;4940411;28;20744;-55
2023/05/02 01:40:49;;;;;;;5.03;4.57;;;17.80;54.50;;;;;;4946147;28;20833;-54
2023/05/02 01:43:17;;;;;;;4.40;4.00;;;17.80;54.70;;;;;;4945536;28;20451;-55
2023/05/02 01:45:46;;;;;;;4.10;3.80;;;17.70;54.60;;;;;;4948020;28;20498;-51
2023/05/02 01:48:13;;;;;;;5.50;5.00;;;17.70;54.90;;;;;;4942119;28;20467;-56
2023/05/02 01:50:41;;;;;;;4.80;4.40;;;17.70;55.00;;;;;;4940499;28;20586;-54
2023/05/02 01:53:10;;;;;;;4.77;4.47;;;17.60;55.10;;;;;;4937628;28;21186;-54
2023/05/02 01:55:38;;;;;;;4.80;4.40;;;17.50;54.80;;;;;;4942805;28;20619;-54
2023/05/02 01:58:05;;;;;;;5.67;4.60;;;17.40;55.40;;;;;;4947859;28;20454;-55
2023/05/02 02:00:32;;;;;;;5.33;4.80;;;17.40;55.50;;;;;;4947790;28;20458;-54
2023/05/02 02:02:59;;;;;;;5.30;4.90;;;17.50;55.20;;;;;;4941557;28;20455;-55
2023/05/02 02:05:25;;;;;;;5.00;4.60;;;17.50;54.80;;;;;;4943574;28;20455;-55
2023/05/02 02:07:51;;;;;;;5.77;5.23;;;17.40;54.70;;;;;;4939968;28;20940;-54
2023/05/02 02:10:17;;;;;;;5.70;5.23;;;17.50;55.20;;;;;;4948904;28;20443;-56
2023/05/02 02:12:52;;;;;;;7.07;5.30;;;17.50;54.90;;;;;;4948925;28;20596;-54
2023/05/02 02:15:27;;;;;;;5.87;5.37;;;17.40;54.80;;;;;;4940868;28;20459;-53
2023/05/02 02:18:10;;;;;;;6.20;5.70;;;17.30;54.90;;;;;;4950669;28;20894;-56
2023/05/02 02:20:38;;;;;;;8.43;5.77;;;17.20;55.40;;;;;;4947677;28;20585;-55
2023/05/02 02:23:07;;;;;;;6.50;5.90;;;17.20;55.70;;;;;;4953891;28;20443;-54
2023/05/02 02:25:33;;;;;;;6.13;5.63;;;17.20;55.40;;;;;;4944802;28;20819;-56
2023/05/02 02:28:00;;;;;;;6.10;5.50;;;17.20;55.50;;;;;;4943528;28;20459;-55
2023/05/02 02:30:25;;;;;;;5.97;5.47;;;17.20;55.70;;;;;;4953728;28;20447;-53
2023/05/02 02:32:51;;;;;;;6.70;5.60;;;17.20;55.60;;;;;;4950182;28;20923;-53
2023/05/02 02:35:17;;;;;;;5.40;4.90;;;17.20;55.50;;;;;;4952386;28;20242;-55
2023/05/02 02:38:08;;;;;;;6.07;5.47;;;17.30;55.40;;;;;;4953718;28;20196;-54
2023/05/02 02:41:01;;;;;;;5.43;4.90;;;17.30;55.00;;;;;;4955402;28;20200;-55
2023/05/02 02:43:36;;;;;;;5.40;5.00;;;17.40;55.30;;;;;;4949426;28;20455;-54
2023/05/02 02:46:26;;;;;;;5.27;4.87;;;17.40;55.00;;;;;;4952841;28;20439;-55
2023/05/02 02:49:01;;;;;;;6.77;5.90;;;17.50;54.50;;;;;;4943842;28;20999;-55
2023/05/02 02:51:44;;;;;;;5.87;5.37;;;17.40;54.60;;;;;;4945785;28;20454;-55
2023/05/02 02:54:22;;;;;;;5.40;4.90;;;17.40;54.90;;;;;;4947811;28;20462;-56
2023/05/02 02:56:55;;;;;;;5.60;5.17;;;17.30;54.50;;;;;;4944893;28;20979;-55
2023/05/02 02:59:31;;;;;;;6.10;5.50;;;17.30;54.80;;;;;;4949279;28;20451;-54
2023/05/02 03:02:03;;;;;;;5.70;5.30;;;17.30;54.20;;;;;;4948423;28;20744;-54
2023/05/02 03:04:31;;;;;;;6.03;5.43;;;17.20;54.20;;;;;;4946529;28;20629;-53
2023/05/02 03:06:57;;;;;;;6.73;6.20;;;17.20;54.20;;;;;;4947241;28;20454;-55
2023/05/02 03:09:23;;;;;;;6.33;5.73;;;17.20;54.20;;;;;;4947040;28;20452;-55
2023/05/02 03:11:48;;;;;;;5.17;4.50;;;17.20;54.20;;;;;;4950303;28;20662;-55
2023/05/02 03:14:14;;;;;;;6.43;5.80;;;17.10;54.20;;;;;;4951956;28;20223;-57
2023/05/02 03:16:40;;;;;;;5.40;5.00;;;17.10;54.50;;;;;;4949925;28;20227;-57
2023/05/02 03:19:07;;;;;;;6.23;5.70;;;17.00;54.40;;;;;;4943288;28;20254;-57
2023/05/02 03:21:34;;;;;;;6.23;5.73;;;16.80;54.50;;;;;;4943793;28;20447;-57
2023/05/02 03:24:01;;;;;;;6.10;5.43;;;16.70;54.90;;;;;;4948584;28;20456;-57
2023/05/02 03:26:27;;;;;;;6.03;5.43;;;16.50;55.50;;;;;;4943690;28;20486;-57
2023/05/02 03:28:53;;;;;;;8.27;5.20;;;16.40;55.90;;;;;;4943810;28;20452;-58
2023/05/02 03:31:20;;;;;;;6.27;5.77;;;16.30;56.10;;;;;;4947116;28;20467;-57
2023/05/02 03:33:46;;;;;;;5.57;5.07;;;16.20;56.30;;;;;;4949735;28;20984;-57
2023/05/02 03:36:11;;;;;;;5.67;5.20;;;16.10;56.40;;;;;;4948280;28;20523;-57
2023/05/02 03:38:37;;;;;;;5.50;5.10;;;16.00;56.50;;;;;;4947045;28;20439;-55
2023/05/02 03:41:03;;;;;;;5.93;5.47;;;15.80;56.80;;;;;;4947731;28;20676;-57
2023/05/02 03:43:29;;;;;;;8.10;6.03;;;15.80;57.30;;;;;;4944279;28;20666;-57
2023/05/02 03:45:54;;;;;;;6.40;5.80;;;15.70;57.40;;;;;;4947043;28;20449;-57
2023/05/02 03:48:20;;;;;;;6.77;6.07;;;15.60;57.40;;;;;;4941310;28;20505;-57
2023/05/02 03:50:46;;;;;;;6.17;5.57;;;15.60;57.50;;;;;;4944065;28;20197;-58
2023/05/02 03:53:12;;;;;;;5.87;5.37;;;15.60;57.60;;;;;;4954307;28;20203;-56
2023/05/02 03:55:43;;;;;;;5.60;5.10;;;15.50;57.60;;;;;;4939748;28;20228;-56
2023/05/02 03:58:10;;;;;;;6.77;6.13;;;15.40;58.00;;;;;;4947669;28;20207;-57
2023/05/02 04:00:37;;;;;;;6.97;5.53;;;15.40;58.30;;;;;;4946095;28;21073;-58
2023/05/02 04:03:03;;;;;;;6.70;6.10;;;15.40;58.40;;;;;;4940647;28;20518;-57
2023/05/02 04:05:28;;;;;;;5.77;5.27;;;15.30;58.30;;;;;;4945517;28;20449;-58
2023/05/02 04:07:57;;;;;;;6.70;6.10;;;15.30;58.40;;;;;;4944679;28;20378;-58
2023/05/02 04:10:23;;;;;;;6.43;5.83;;;15.30;58.70;;;;;;4950989;28;20192;-56
2023/05/02 04:12:49;;;;;;;6.87;5.60;;;15.20;58.70;;;;;;4942489;28;20962;-57
2023/05/02 04:15:14;;;;;;;6.37;5.73;;;15.20;58.70;;;;;;4937193;28;20212;-56
2023/05/02 04:17:40;;;;;;;5.93;5.40;;;15.10;58.70;;;;;;4950598;28;20199;-57
2023/05/02 04:20:06;;;;;;;6.50;5.90;;;15.10;58.90;;;;;;4959132;28;20307;-57
2023/05/02 04:22:32;;;;;;;6.40;5.90;;;15.20;58.90;;;;;;4951248;28;20569;-57
2023/05/02 04:24:58;;;;;;;7.60;6.47;;;15.10;59.10;;;;;;4940841;28;20435;-56
2023/05/02 04:27:23;;;;;;;6.70;6.00;;;15.10;59.20;;;;;;4948935;28;20211;-56
2023/05/02 04:29:50;;;;;;;13.47;9.97;;;15.10;59.30;;;;;;4946575;29;20208;-57
2023/05/02 04:32:15;;;;;;;9.57;8.57;;;15.10;59.10;;;;;;4949855;28;20200;-57
2023/05/02 04:34:41;;;;;;;8.60;7.80;;;15.20;59.00;;;;;;4954222;28;20567;-57
2023/05/02 04:37:07;;;;;;;9.53;8.53;;;15.20;59.00;;;;;;4949569;28;20244;-57
2023/05/02 04:39:33;;;;;;;6.70;6.10;;;15.20;59.00;;;;;;4947297;29;20270;-57
2023/05/02 04:41:59;;;;;;;6.40;5.80;;;15.20;59.00;;;;;;4953531;29;20195;-57
2023/05/02 04:44:24;;;;;;;6.40;5.90;;;15.10;59.10;;;;;;4953856;28;20428;-57
2023/05/02 04:46:50;;;;;;;7.00;5.67;;;15.10;59.20;;;;;;4951862;29;20200;-55
2023/05/02 04:49:16;;;;;;;7.87;6.00;;;15.20;59.20;;;;;;4943825;28;20196;-57
2023/05/02 04:51:42;;;;;;;5.70;5.27;;;15.20;59.20;;;;;;4947220;28;20187;-57
2023/05/02 04:54:07;;;;;;;6.97;6.37;;;15.10;59.30;;;;;;4947438;29;20611;-57
2023/05/02 04:56:33;;;;;;;6.50;5.80;;;15.00;59.40;;;;;;4949847;29;20483;-57
2023/05/02 04:58:59;;;;;;;9.40;6.10;;;15.00;59.50;;;;;;4949031;28;20207;-56
2023/05/02 05:01:26;;;;;;;6.97;6.27;;;15.00;59.40;;;;;;4945841;28;20200;-56
2023/05/02 05:03:55;;;;;;;9.47;6.77;;;14.90;59.40;;;;;;4949390;28;20251;-57
2023/05/02 05:06:21;;;;;;;6.77;6.27;;;14.90;59.60;;;;;;4942926;28;20440;-57
2023/05/02 05:08:47;;;;;;;6.67;6.00;;;15.00;59.60;;;;;;4939076;28;20463;-57
2023/05/02 05:11:14;;;;;;;6.30;5.70;;;15.10;59.70;;;;;;4949168;28;20816;-55
2023/05/02 05:13:40;;;;;;;6.47;5.87;;;15.10;59.90;;;;;;4940590;28;21045;-54
2023/05/02 05:16:07;;;;;;;7.00;6.10;;;15.20;61.00;;;;;;4944796;28;20499;-55
2023/05/02 05:18:39;;;;;;;7.13;5.70;;;15.40;61.10;;;;;;4942555;28;20462;-54
2023/05/02 05:21:09;;;;;;;6.50;5.90;;;15.60;60.70;;;;;;4941408;28;21205;-54
2023/05/02 05:23:35;;;;;;;8.93;6.20;;;15.80;60.30;;;;;;4942994;28;20727;-55
2023/05/02 05:26:17;;;;;;;6.27;5.60;;;16.00;60.00;;;;;;4940166;28;20494;-55
2023/05/02 05:28:43;;;;;;;6.50;5.90;;;16.10;59.50;;;;;;4947150;28;20466;-54
2023/05/02 05:31:11;;;;;;;7.47;6.77;;;16.20;59.00;;;;;;4963126;28;20883;-54
2023/05/02 05:33:38;;;;;;;7.13;6.50;;;16.30;58.50;;;;;;4940814;28;20445;-55
2023/05/02 05:36:09;;;;;;;6.53;5.93;;;16.30;58.40;;;;;;4949895;28;20518;-56
2023/05/02 05:38:35;;;;;;;7.30;6.60;;;16.40;58.60;;;;;;4950802;28;20456;-56
2023/05/02 05:41:01;;;;;;;8.23;7.43;;;16.50;59.30;;;;;;4953110;29;20428;-56
2023/05/02 05:43:27;;;;;;;7.90;7.20;;;16.50;58.80;;;;;;4948397;28;20447;-56
2023/05/02 05:45:54;;;;;;;8.70;6.00;;;16.60;58.70;;;;;;4951505;28;20440;-55
2023/05/02 05:48:20;;;;;;;6.00;5.50;;;16.70;58.60;;;;;;4950302;28;21018;-56
2023/05/02 05:50:45;;;;;;;7.20;5.90;;;16.80;58.40;;;;;;4941220;28;20527;-55
2023/05/02 05:53:12;;;;;;;8.30;7.10;;;17.00;58.60;;;;;;4951262;28;20330;-55
2023/05/02 05:55:38;;;;;;;7.87;7.17;;;17.00;58.30;;;;;;4950582;28;20231;-55
2023/05/02 05:58:04;;;;;;;7.97;7.27;;;17.00;57.90;;;;;;4946748;29;20454;-55
2023/05/02 06:00:30;;;;;;;9.40;8.13;;;17.00;57.70;;;;;;4951426;29;20184;-54
2023/05/02 06:02:55;;;;;;;8.37;7.57;;;17.10;57.70;;;;;;4948830;28;20935;-55
2023/05/02 06:05:21;;;;;;;8.30;7.50;;;17.10;57.60;;;;;;4950256;28;20199;-55
2023/05/02 06:07:46;;;;;;;8.23;7.50;;;17.10;57.50;;;;;;4946876;28;20196;-54
2023/05/02 06:10:12;;;;;;;8.87;7.97;;;17.10;57.50;;;;;;4958147;28;20221;-55
2023/05/02 06:12:37;;;;;;;9.70;8.80;;;17.00;57.60;;;;;;4972155;28;20278;-55
2023/05/02 06:15:03;;;;;;;8.10;7.30;;;17.10;57.80;;;;;;4970029;28;20198;-54
2023/05/02 06:17:30;;;;;;;8.97;7.97;;;17.10;57.70;;;;;;4959683;28;20196;-55
2023/05/02 06:19:55;;;;;;;8.17;7.37;;;17.10;57.80;;;;;;4952365;28;20435;-55
2023/05/02 06:22:21;;;;;;;9.33;8.27;;;17.10;57.80;;;;;;4952616;28;20840;-55
2023/05/02 06:24:46;;;;;;;8.00;7.30;;;17.10;57.80;;;;;;4945514;28;20202;-55
2023/05/02 06:27:12;;;;;;;8.13;7.33;;;17.10;57.80;;;;;;4966914;28;20200;-55
2023/05/02 06:29:37;;;;;;;8.97;8.20;;;17.20;57.90;;;;;;4951823;28;20215;-55
2023/05/02 06:32:03;;;;;;;9.37;7.40;;;17.20;57.70;;;;;;4951161;28;20227;-55
2023/05/02 06:34:32;;;;;;;8.73;7.93;;;17.30;57.60;;;;;;4949354;28;20204;-55
2023/05/02 06:36:57;;;;;;;7.90;7.20;;;17.40;57.60;;;;;;4949542;29;20410;-55
2023/05/02 06:39:23;;;;;;;9.50;8.53;;;17.50;57.40;;;;;;4950345;28;20531;-54
2023/05/02 06:41:49;;;;;;;8.33;7.53;;;17.60;57.20;;;;;;4959785;28;20191;-54
2023/05/02 06:44:15;;;;;;;9.20;8.40;;;17.60;57.20;;;;;;4970073;28;20191;-55
2023/05/02 06:46:40;;;;;;;8.23;7.53;;;17.60;57.10;;;;;;4971395;28;20347;-54
2023/05/02 06:49:06;;;;;;;9.07;8.27;;;17.70;57.10;;;;;;4958471;28;20278;-55
2023/05/02 06:51:31;;;;;;;8.70;7.80;;;17.80;57.00;;;;;;4943944;28;20673;-55
2023/05/02 06:53:57;;;;;;;8.83;8.10;;;17.90;57.10;;;;;;4951743;28;20199;-55
2023/05/02 06:56:26;;;;;;;7.87;7.10;;;17.90;57.40;;;;;;4946579;28;20227;-54
2023/05/02 06:58:52;;;;;;;8.30;7.60;;;17.90;57.30;;;;;;4941837;28;20205;-55
2023/05/02 07:01:18;;;;;;;9.13;7.90;;;18.00;57.00;;;;;;4938724;28;20502;-55
2023/05/02 07:03:44;;;;;;;8.83;8.10;;;18.20;56.80;;;;;;4942434;28;20278;-54
2023/05/02 07:06:10;;;;;;;10.70;8.43;;;18.20;56.80;;;;;;4937164;28;20211;-56
2023/05/02 07:08:36;;;;;;;9.17;8.33;;;18.20;56.70;;;;;;4939015;28;20439;-56
2023/05/02 07:11:02;;;;;;;9.27;8.47;;;18.30;56.90;;;;;;4945005;28;20232;-55
2023/05/02 07:13:27;;;;;;;8.67;7.87;;;18.30;56.70;;;;;;4949566;29;20203;-56
2023/05/02 07:15:53;;;;;;;10.13;9.00;;;18.40;56.70;;;;;;4954845;29;20483;-55
2023/05/02 07:18:18;;;;;;;9.00;8.20;;;18.40;56.80;;;;;;4951326;28;20691;-56
2023/05/02 07:20:44;;;;;;;9.33;8.47;;;18.50;56.90;;;;;;4951228;28;20231;-55
2023/05/02 07:23:10;;;;;;;9.90;9.00;;;18.60;56.80;;;;;;4950606;28;20191;-55
2023/05/02 07:25:36;;;;;;;10.03;9.10;;;18.60;56.60;;;;;;4953235;29;20331;-56
2023/05/02 07:28:01;;;;;;;9.87;8.87;;;18.60;56.50;;;;;;4939557;28;20208;-55
2023/05/02 07:30:27;;;;;;;9.63;8.73;;;18.70;56.40;;;;;;4953408;29;20431;-55
2023/05/02 07:32:52;;;;;;;10.33;9.43;;;18.60;56.40;;;;;;4950350;28;20196;-51
2023/05/02 07:35:18;;;;;;;11.70;9.67;;;18.70;56.40;;;;;;4940784;28;20727;-56
2023/05/02 07:37:44;;;;;;;10.87;9.67;;;18.70;57.00;;;;;;4941034;28;20244;-56
2023/05/02 07:40:09;;;;;;;9.60;8.67;;;18.60;56.90;;;;;;4936812;28;20204;-55
2023/05/02 07:42:40;;;;;;;11.17;9.97;;;18.60;56.90;;;;;;4939752;28;20204;-55
2023/05/02 07:45:06;;;;;;;11.27;10.17;;;18.60;56.80;;;;;;4945180;28;20755;-52
2023/05/02 07:47:31;;;;;;;12.17;10.37;;;18.60;57.10;;;;;;4944510;28;20522;-56
2023/05/02 07:49:57;;;;;;;11.53;10.37;;;18.60;56.80;;;;;;4948016;28;20447;-52
2023/05/02 07:52:23;;;;;;;11.70;10.60;;;18.60;56.80;;;;;;4946964;28;20207;-54
2023/05/02 07:54:49;;;;;;;11.83;10.60;;;18.50;57.00;;;;;;4945033;29;20201;-55
2023/05/02 07:57:15;;;;;;;12.90;10.03;;;18.40;56.80;;;;;;4941374;28;20295;-54
2023/05/02 07:59:44;;;;;;;12.57;11.37;;;18.30;56.50;;;;;;4939021;28;21015;-55
2023/05/02 08:02:11;;;;;;;12.43;11.23;;;18.20;56.60;;;;;;4937935;28;20299;-52
2023/05/02 08:04:37;;;;;;;14.07;12.67;;;18.20;56.70;;;;;;4937458;28;20452;-53
2023/05/02 08:07:03;;;;;;;12.17;11.07;;;18.20;56.70;;;;;;4941626;28;20440;-52
2023/05/02 08:09:28;;;;;;;12.63;11.20;;;18.10;57.30;;;;;;4945485;28;20239;-51
2023/05/02 08:11:54;;;;;;;14.87;13.47;;;18.10;57.20;;;;;;4946076;28;20270;-53
2023/05/02 08:14:19;;;;;;;14.20;13.00;;;18.00;57.20;;;;;;4943013;28;20197;-54
2023/05/02 08:16:45;;;;;;;13.90;12.53;;;18.10;57.20;;;;;;4950113;28;20230;-53
2023/05/02 08:19:10;;;;;;;14.60;13.10;;;18.20;57.00;;;;;;4944460;28;20287;-51
2023/05/02 08:21:36;;;;;;;14.10;12.47;;;18.00;56.80;;;;;;4937591;28;20231;-57
2023/05/02 08:24:02;;;;;;;15.03;13.20;;;18.20;56.90;;;;;;4942879;28;20196;-55
2023/05/02 08:26:27;;;;;;;14.80;13.30;;;18.20;57.00;;;;;;4939539;28;20276;-52
2023/05/02 08:28:53;;;;;;;14.90;13.40;;;18.20;56.70;;;;;;4956395;28;20207;-55
2023/05/02 08:31:20;;;;;;;14.13;12.83;;;18.20;56.80;;;;;;4942102;28;20287;-55
2023/05/02 08:33:46;;;;;;;15.10;13.50;;;18.20;56.70;;;;;;4946494;28;20443;-55
2023/05/02 08:36:13;;;;;;;15.03;13.60;;;18.20;56.70;;;;;;4945200;28;20498;-55
2023/05/02 08:38:39;;;;;;;15.60;14.10;;;18.10;56.70;;;;;;4945259;28;20441;-54
2023/05/02 08:41:17;;;;;;;15.77;14.27;;;17.90;56.60;;;;;;4940639;28;20530;-57
2023/05/02 08:43:44;;;;;;;15.70;14.10;;;18.00;57.30;;;;;;4946614;28;20457;-55
2023/05/02 08:46:11;;;;;;;15.50;14.10;;;18.10;57.30;;;;;;4942245;28;20533;-55
2023/05/02 08:48:39;;;;;;;15.90;14.40;;;18.30;56.90;;;;;;4942601;28;20456;-55
2023/05/02 08:51:08;;;;;;;21.47;18.27;;;18.40;56.40;;;;;;4942847;28;20439;-54
2023/05/02 08:53:36;;;;;;;16.83;15.23;;;18.40;56.70;;;;;;4947305;28;20951;-54
2023/05/02 08:56:02;;;;;;;17.53;15.63;;;18.50;56.20;;;;;;4946165;28;20497;-54
2023/05/02 08:58:29;;;;;;;18.40;16.50;;;18.60;55.80;;;;;;4941411;28;20439;-56
2023/05/02 09:00:59;;;;;;;18.80;17.00;;;18.70;55.40;;;;;;4941417;28;20452;-53
2023/05/02 09:03:32;;;;;;;16.20;14.73;;;18.90;55.10;;;;;;4945944;28;20534;-55
2023/05/02 09:06:18;;;;;;;15.33;13.53;;;19.00;55.30;;;;;;4941163;28;20848;-51
2023/05/02 09:08:47;;;;;;;17.67;15.97;;;19.10;55.30;;;;;;4941870;28;20945;-55
2023/05/02 09:11:13;;;;;;;17.63;15.83;;;19.20;54.90;;;;;;4939809;28;20440;-56
2023/05/02 09:13:47;;;;;;;17.20;15.60;;;19.30;54.70;;;;;;4941281;28;20455;-54
2023/05/02 09:16:27;;;;;;;16.63;15.00;;;19.40;54.80;;;;;;4944791;29;20854;-55
2023/05/02 09:18:57;;;;;;;15.27;13.80;;;19.50;54.50;;;;;;4945930;28;20451;-55
2023/05/02 09:21:25;;;;;;;17.60;15.90;;;19.70;53.80;;;;;;4948421;28;20453;-55
2023/05/02 09:23:56;;;;;;;19.10;17.20;;;19.70;53.50;;;;;;4943525;28;20455;-53
2023/05/02 09:26:31;;;;;;;17.27;15.57;;;19.80;53.40;;;;;;4944216;28;20542;-54
2023/05/02 09:28:58;;;;;;;17.23;15.73;;;19.70;53.70;;;;;;4943271;29;20849;-54
2023/05/02 09:31:36;;;;;;;16.83;15.13;;;19.60;53.30;;;;;;4944279;28;20495;-54
2023/05/02 09:34:12;;;;;;;18.27;16.57;;;19.90;53.50;;;;;;4938917;28;20439;-53
2023/05/02 09:36:43;;;;;;;18.30;15.23;;;20.10;53.40;;;;;;4942185;28;20826;-55
2023/05/02 09:39:10;;;;;;;18.43;16.63;;;20.40;53.10;;;;;;4944276;28;20455;-55
2023/05/02 09:41:40;;;;;;;16.23;14.83;;;20.50;52.30;;;;;;4939939;28;20459;-56
2023/05/02 09:44:10;;;;;;;17.77;16.17;;;20.50;51.90;;;;;;4938261;28;21256;-55
2023/05/02 09:46:43;;;;;;;17.80;15.90;;;20.30;52.10;;;;;;4943553;28;20443;-53
2023/05/02 09:49:09;;;;;;;18.47;16.67;;;20.50;51.80;;;;;;4941022;29;20450;-57
2023/05/02 09:51:34;;;;;;;17.30;15.73;;;20.60;51.60;;;;;;4949139;28;20442;-54
2023/05/02 09:54:00;;;;;;;16.10;14.50;;;20.80;52.00;;;;;;4947925;28;20274;-56
2023/05/02 09:56:26;;;;;;;15.33;14.03;;;21.00;51.70;;;;;;4945991;28;20224;-56
2023/05/02 09:59:10;;;;;;;13.43;12.13;;;21.10;50.90;;;;;;4948146;28;20677;-54
2023/05/02 10:01:36;;;;;;;16.87;15.07;;;21.20;51.10;;;;;;4946451;28;20207;-56
2023/05/02 10:04:03;;;;;;;14.87;13.57;;;21.20;49.80;;;;;;4945068;28;20849;-55
2023/05/02 10:06:31;;;;;;;16.53;14.80;;;21.30;49.30;;;;;;4946552;28;20523;-56
2023/05/02 10:08:58;;;;;;;17.00;15.20;;;21.60;49.90;;;;;;4947617;29;20977;-55
2023/05/02 10:11:24;;;;;;;16.17;14.67;;;21.90;48.80;;;;;;4944528;29;20519;-56
2023/05/02 10:13:51;;;;;;;16.97;15.30;;;22.10;48.70;;;;;;4940018;28;20467;-56
2023/05/02 10:16:27;;;;;;;14.90;13.60;;;22.10;48.00;;;;;;4942303;28;20227;-57
2023/05/02 10:19:00;;;;;;;12.90;11.80;;;22.20;47.70;;;;;;4947296;28;20444;-54
2023/05/02 10:21:26;;;;;;;14.67;13.20;;;22.20;48.50;;;;;;4945937;29;20466;-55
2023/05/02 10:23:53;;;;;;;16.40;14.90;;;22.40;49.20;;;;;;4949442;29;20476;-57
2023/05/02 10:26:22;;;;;;;15.37;13.87;;;22.50;46.90;;;;;;4941154;28;20610;-57
2023/05/02 10:28:49;;;;;;;15.23;13.83;;;22.80;47.30;;;;;;4939415;28;20898;-55
2023/05/02 10:31:15;;;;;;;16.23;14.63;;;23.00;47.50;;;;;;4937056;28;20538;-55
2023/05/02 10:33:41;;;;;;;16.03;14.63;;;23.30;46.20;;;;;;4947681;29;20447;-56
2023/05/02 10:36:14;;;;;;;14.07;12.87;;;23.30;45.50;;;;;;4946005;28;20507;-57
2023/05/02 10:38:41;;;;;;;16.27;14.83;;;23.10;46.20;;;;;;4946228;29;20446;-57
2023/05/02 10:41:11;;;;;;;14.30;13.00;;;23.20;45.60;;;;;;4948834;28;20442;-57
2023/05/02 10:43:37;;;;;;;15.23;13.87;;;23.60;45.40;;;;;;4952755;28;20439;-55
2023/05/02 10:46:29;;;;;;;14.90;13.60;;;23.90;45.00;;;;;;4954687;29;20497;-56
2023/05/02 10:49:05;;;;;;;14.20;12.83;;;23.90;43.50;;;;;;4952033;28;20443;-56
2023/05/02 10:51:32;;;;;;;16.07;14.67;;;24.00;43.90;;;;;;4947764;28;20460;-56
2023/05/02 10:54:19;;;;;;;14.63;13.23;;;24.00;43.40;;;;;;4952386;28;20530;-56
2023/05/02 10:57:03;;;;;;;13.93;12.63;;;23.90;43.20;;;;;;4950133;28;20989;-56
2023/05/02 10:59:29;;;;;;;14.20;12.90;;;23.80;43.50;;;;;;4946514;28;20831;-56
2023/05/02 11:01:56;;;;;;;16.33;13.47;;;23.80;43.50;;;;;;4951230;28;20928;-56
2023/05/02 11:04:22;;;;;;;17.33;15.83;;;23.90;43.70;;;;;;4944701;28;20444;-56
2023/05/02 11:06:58;;;;;;;12.20;10.97;;;23.90;43.80;;;;;;4950173;29;20868;-57
2023/05/02 11:09:23;;;;;;;11.30;10.10;;;24.00;44.10;;;;;;4951349;29;20451;-55
2023/05/02 11:11:51;;;;;;;14.80;13.40;;;24.10;44.20;;;;;;4948571;29;20519;-57
2023/05/02 11:14:29;;;;;;;12.90;11.80;;;24.40;44.50;;;;;;4952995;28;20297;-57
2023/05/02 11:17:02;;;;;;;9.40;8.43;;;24.60;43.80;;;;;;4939631;29;20491;-56
2023/05/02 11:19:30;;;;;;;6.90;6.20;;;24.80;43.30;;;;;;4947052;28;20455;-57
2023/05/02 11:22:22;;;;;;;10.20;9.30;;;25.10;43.40;;;;;;4943816;28;20510;-55
2023/05/02 11:24:49;;;;;;;9.83;9.03;;;25.40;42.00;;;;;;4946679;28;20451;-56
2023/05/02 11:27:30;;;;;;;15.43;14.23;;;25.50;41.30;;;;;;4946414;28;20450;-56
2023/05/02 11:29:58;;;;;;;9.83;8.93;;;25.60;40.80;;;;;;4944932;28;20447;-57
2023/05/02 11:32:42;;;;;;;9.30;8.60;;;25.50;41.50;;;;;;4951952;29;20450;-54
2023/05/02 11:35:20;;;;;;;10.20;9.20;;;25.40;41.80;;;;;;4954445;28;20478;-54
2023/05/02 11:37:53;;;;;;;11.50;10.37;;;25.70;42.30;;;;;;4954442;29;20447;-55
2023/05/02 11:40:19;;;;;;;14.10;12.83;;;25.80;41.20;;;;;;4950615;28;20538;-55
2023/05/02 11:42:45;;;;;;;16.20;14.60;;;25.90;40.90;;;;;;4942742;29;20983;-57
2023/05/02 11:45:14;;;;;;;15.00;13.70;;;25.90;40.00;;;;;;4940262;28;20449;-58
2023/05/02 11:47:41;;;;;;;16.83;15.33;;;25.80;40.20;;;;;;4952418;28;20444;-58
2023/05/02 11:50:10;;;;;;;17.73;16.23;;;25.70;40.80;;;;;;4952612;28;20464;-57
2023/05/02 11:52:37;;;;;;;18.07;16.37;;;25.50;41.30;;;;;;4960484;28;20431;-57
2023/05/02 11:55:05;;;;;;;17.60;15.40;;;25.30;41.30;;;;;;4947528;28;20664;-59
2023/05/02 11:57:32;;;;;;;16.00;14.60;;;25.00;41.60;;;;;;4944896;28;20502;-57
2023/05/02 11:59:58;;;;;;;19.30;17.40;;;24.80;43.10;;;;;;4954343;28;20442;-58
2023/05/02 12:02:37;;;;;;;18.53;16.83;;;24.60;45.00;;;;;;4948950;28;20452;-56
2023/05/02 12:05:07;;;;;;;18.60;16.87;;;24.60;45.60;;;;;;4951449;28;20205;-59
2023/05/02 12:07:48;;;;;;;17.97;16.17;;;24.50;45.40;;;;;;4939624;28;20941;-57
2023/05/02 12:10:13;;;;;;;16.90;15.20;;;24.40;45.30;;;;;;4946991;28;21181;-58
2023/05/02 12:12:42;;;;;;;16.73;15.13;;;24.40;45.00;;;;;;4945430;28;20485;-55
2023/05/02 12:15:10;;;;;;;16.53;14.90;;;24.30;44.30;;;;;;4938286;29;20283;-56
2023/05/02 12:17:47;;;;;;;16.30;14.80;;;24.30;42.70;;;;;;4940508;28;20616;-54
2023/05/02 12:20:14;;;;;;;16.67;15.00;;;24.40;42.70;;;;;;4945076;28;21033;-55
2023/05/02 12:22:40;;;;;;;16.63;14.90;;;24.40;42.70;;;;;;4941616;28;20912;-57
2023/05/02 12:25:06;;;;;;;16.90;15.27;;;24.60;43.20;;;;;;4946261;28;20538;-53
2023/05/02 12:27:34;;;;;;;16.50;14.73;;;24.60;41.40;;;;;;4945255;28;20664;-55
2023/05/02 12:30:01;;;;;;;18.90;17.30;;;24.40;41.10;;;;;;4941358;29;20496;-55
2023/05/02 12:32:34;;;;;;;17.93;16.27;;;24.40;41.20;;;;;;4945127;28;20443;-55
2023/05/02 12:35:01;;;;;;;17.37;15.67;;;24.60;41.60;;;;;;4941502;28;20871;-55
2023/05/02 12:37:28;;;;;;;17.23;15.40;;;24.50;42.40;;;;;;4946266;28;20906;-53
2023/05/02 12:39:54;;;;;;;15.23;13.80;;;24.40;40.20;;;;;;4941332;29;20457;-56
2023/05/02 12:42:25;;;;;;;14.40;12.93;;;24.40;40.80;;;;;;4946984;29;20448;-55
2023/05/02 12:44:52;;;;;;;12.50;11.40;;;24.20;40.10;;;;;;4944704;28;20471;-55